SPSEC EPKK-EPKK
Flight info
| Callsign | SPSEC |
|---|---|
| Flight time | 0h 48m |
| Altitude | 2000 |
| Route | EPKK/25 DCT |
| Aircraft | PA24/L-SBDGRY/S |
Departure
| Time | 2026-05-06 19:15 |
|---|---|
| Airport | Kraków John Paul II International Airport (EPKK) |
Arrival
| Time | 2026-05-06 20:04 |
|---|---|
| Airport | Kraków John Paul II International Airport (EPKK) |
| Time | Latitude | Longitude | Altitude | Speed | Heading |
|---|---|---|---|---|---|
| 2026-05-06 18:15 | 50.07700 | 19.80161 | 794 ft | 0 kts | 348° |
| 2026-05-06 18:52 | 50.07719 | 19.80155 | 794 ft | 6 kts | 345° |
| 2026-05-06 18:53 | 50.07759 | 19.80204 | 794 ft | 10 kts | 86° |
| 2026-05-06 18:53 | 50.07771 | 19.80282 | 794 ft | 0 kts | 81° |
| 2026-05-06 18:57 | 50.07771 | 19.80283 | 794 ft | 0 kts | 81° |
| 2026-05-06 19:05 | 50.07771 | 19.80284 | 794 ft | 0 kts | 81° |
| 2026-05-06 19:08 | 50.07781 | 19.80327 | 794 ft | 7 kts | 52° |
| 2026-05-06 19:09 | 50.07809 | 19.80349 | 794 ft | 5 kts | 356° |
| 2026-05-06 19:09 | 50.07850 | 19.80335 | 795 ft | 4 kts | 347° |
| 2026-05-06 19:09 | 50.07854 | 19.80333 | 795 ft | 0 kts | 347° |
| 2026-05-06 19:14 | 50.07857 | 19.80332 | 795 ft | 4 kts | 346° |
| 2026-05-06 19:14 | 50.07914 | 19.80312 | 794 ft | 14 kts | 338° |
| 2026-05-06 19:14 | 50.08012 | 19.80256 | 794 ft | 17 kts | 295° |
| 2026-05-06 19:14 | 50.08003 | 19.80134 | 795 ft | 7 kts | 255° |
| 2026-05-06 19:15 | 50.07951 | 19.79769 | 795 ft | 73 kts | 256° |
| 2026-05-06 19:15 | 50.07800 | 19.78853 | 938 ft | 91 kts | 253° |
| 2026-05-06 19:15 | 50.07698 | 19.77905 | 1233 ft | 91 kts | 257° |
| 2026-05-06 19:15 | 50.07553 | 19.76884 | 1541 ft | 98 kts | 246° |
| 2026-05-06 19:16 | 50.06960 | 19.76610 | 1698 ft | 107 kts | 166° |
| 2026-05-06 19:16 | 50.06267 | 19.76825 | 1724 ft | 99 kts | 169° |
| 2026-05-06 19:16 | 50.05673 | 19.77238 | 1738 ft | 95 kts | 121° |
| 2026-05-06 19:16 | 50.05725 | 19.78262 | 1696 ft | 100 kts | 78° |
| 2026-05-06 19:17 | 50.05348 | 19.78771 | 1620 ft | 102 kts | 211° |
| 2026-05-06 19:17 | 50.04735 | 19.78313 | 1638 ft | 96 kts | 167° |
| 2026-05-06 19:17 | 50.04365 | 19.79115 | 1658 ft | 93 kts | 105° |
| 2026-05-06 19:17 | 50.04689 | 19.79825 | 1646 ft | 94 kts | 356° |
| 2026-05-06 19:18 | 50.05155 | 19.79099 | 1576 ft | 100 kts | 296° |
| 2026-05-06 19:18 | 50.04967 | 19.78260 | 1559 ft | 97 kts | 197° |
| 2026-05-06 19:18 | 50.04486 | 19.78775 | 1599 ft | 89 kts | 104° |
| 2026-05-06 19:18 | 50.04730 | 19.79577 | 1580 ft | 94 kts | 13° |
| 2026-05-06 19:19 | 50.05221 | 19.79012 | 1550 ft | 94 kts | 280° |
| 2026-05-06 19:19 | 50.04847 | 19.78460 | 1585 ft | 85 kts | 162° |
| 2026-05-06 19:19 | 50.04513 | 19.79164 | 1623 ft | 82 kts | 105° |
| 2026-05-06 19:19 | 50.04790 | 19.79862 | 1622 ft | 85 kts | 8° |
| 2026-05-06 19:20 | 50.05230 | 19.79297 | 1606 ft | 88 kts | 291° |
| 2026-05-06 19:20 | 50.05068 | 19.78529 | 1628 ft | 81 kts | 207° |
| 2026-05-06 19:20 | 50.04717 | 19.78822 | 1712 ft | 74 kts | 100° |
| 2026-05-06 19:20 | 50.04673 | 19.79670 | 1677 ft | 82 kts | 89° |
| 2026-05-06 19:21 | 50.05109 | 19.80218 | 1610 ft | 92 kts | 350° |
| 2026-05-06 19:21 | 50.05490 | 19.79448 | 1536 ft | 99 kts | 277° |
| 2026-05-06 19:21 | 50.05521 | 19.78455 | 1645 ft | 86 kts | 246° |
| 2026-05-06 19:21 | 50.05047 | 19.78272 | 1701 ft | 82 kts | 148° |
| 2026-05-06 19:22 | 50.04777 | 19.79020 | 1710 ft | 83 kts | 85° |
| 2026-05-06 19:22 | 50.05237 | 19.79397 | 1672 ft | 89 kts | 336° |
| 2026-05-06 19:22 | 50.05588 | 19.78588 | 1651 ft | 93 kts | 288° |
| 2026-05-06 19:22 | 50.05225 | 19.77931 | 1634 ft | 91 kts | 188° |
| 2026-05-06 19:23 | 50.04717 | 19.78361 | 1602 ft | 94 kts | 103° |
| 2026-05-06 19:23 | 50.04948 | 19.79278 | 1589 ft | 97 kts | 34° |
| 2026-05-06 19:23 | 50.05531 | 19.79060 | 1606 ft | 94 kts | 297° |
| 2026-05-06 19:23 | 50.05469 | 19.78179 | 1676 ft | 84 kts | 217° |
| 2026-05-06 19:24 | 50.04917 | 19.78028 | 1680 ft | 83 kts | 172° |
| 2026-05-06 19:24 | 50.04530 | 19.78556 | 1735 ft | 79 kts | 111° |
| 2026-05-06 19:24 | 50.04646 | 19.79375 | 1729 ft | 85 kts | 67° |
| 2026-05-06 19:24 | 50.05153 | 19.79730 | 1702 ft | 90 kts | 345° |
| 2026-05-06 19:25 | 50.05665 | 19.79270 | 1777 ft | 84 kts | 306° |
| 2026-05-06 19:25 | 50.05614 | 19.78471 | 1794 ft | 79 kts | 214° |
| 2026-05-06 19:25 | 50.05110 | 19.78165 | 1804 ft | 78 kts | 175° |
| 2026-05-06 19:25 | 50.04730 | 19.78703 | 1834 ft | 79 kts | 108° |
| 2026-05-06 19:26 | 50.04867 | 19.79494 | 1816 ft | 85 kts | 32° |
| 2026-05-06 19:26 | 50.05377 | 19.79188 | 1748 ft | 92 kts | 285° |
| 2026-05-06 19:26 | 50.05133 | 19.78447 | 1815 ft | 76 kts | 198° |
| 2026-05-06 19:26 | 50.04752 | 19.78856 | 1838 ft | 77 kts | 99° |
| 2026-05-06 19:27 | 50.04865 | 19.79655 | 1848 ft | 81 kts | 50° |
| 2026-05-06 19:27 | 50.05347 | 19.79945 | 1941 ft | 72 kts | 350° |
| 2026-05-06 19:27 | 50.05711 | 19.79457 | 1929 ft | 72 kts | 283° |
| 2026-05-06 19:27 | 50.05574 | 19.78708 | 1868 ft | 79 kts | 204° |
| 2026-05-06 19:28 | 50.05148 | 19.79013 | 1876 ft | 79 kts | 101° |
| 2026-05-06 19:28 | 50.05534 | 19.79620 | 1765 ft | 99 kts | 11° |
| 2026-05-06 19:28 | 50.06112 | 19.80152 | 1720 ft | 102 kts | 66° |
| 2026-05-06 19:28 | 50.06301 | 19.81221 | 1678 ft | 103 kts | 78° |
| 2026-05-06 19:29 | 50.06460 | 19.82285 | 1672 ft | 103 kts | 79° |
| 2026-05-06 19:29 | 50.06643 | 19.83369 | 1657 ft | 102 kts | 77° |
| 2026-05-06 19:29 | 50.06860 | 19.84423 | 1658 ft | 101 kts | 75° |
| 2026-05-06 19:29 | 50.07081 | 19.85438 | 1654 ft | 100 kts | 74° |
| 2026-05-06 19:30 | 50.07625 | 19.85942 | 1569 ft | 105 kts | 351° |
| 2026-05-06 19:30 | 50.08330 | 19.85742 | 1607 ft | 101 kts | 348° |
| 2026-05-06 19:30 | 50.08862 | 19.85196 | 1608 ft | 99 kts | 269° |
| 2026-05-06 19:30 | 50.08611 | 19.84173 | 1491 ft | 104 kts | 245° |
| 2026-05-06 19:31 | 50.08418 | 19.83140 | 1318 ft | 96 kts | 253° |
| 2026-05-06 19:31 | 50.08324 | 19.82473 | 1213 ft | 94 kts | 258° |
| 2026-05-06 19:31 | 50.08064 | 19.80528 | 1079 ft | 92 kts | 257° |
| 2026-05-06 19:32 | 50.07929 | 19.79544 | 1094 ft | 92 kts | 256° |
| 2026-05-06 19:32 | 50.07691 | 19.78633 | 1343 ft | 92 kts | 205° |
| 2026-05-06 19:32 | 50.07067 | 19.78761 | 1562 ft | 83 kts | 167° |
| 2026-05-06 19:32 | 50.06537 | 19.79102 | 1583 ft | 83 kts | 136° |
| 2026-05-06 19:33 | 50.06388 | 19.79959 | 1586 ft | 89 kts | 82° |
| 2026-05-06 19:33 | 50.06528 | 19.80924 | 1591 ft | 93 kts | 79° |
| 2026-05-06 19:33 | 50.06671 | 19.81896 | 1624 ft | 92 kts | 79° |
| 2026-05-06 19:33 | 50.06810 | 19.82887 | 1615 ft | 96 kts | 81° |
| 2026-05-06 19:34 | 50.06941 | 19.83901 | 1621 ft | 96 kts | 81° |
| 2026-05-06 19:34 | 50.07116 | 19.84887 | 1583 ft | 93 kts | 78° |
| 2026-05-06 19:34 | 50.07283 | 19.85802 | 1559 ft | 79 kts | 76° |
| 2026-05-06 19:34 | 50.07639 | 19.86371 | 1499 ft | 78 kts | 11° |
| 2026-05-06 19:35 | 50.08178 | 19.86287 | 1422 ft | 77 kts | 347° |
| 2026-05-06 19:35 | 50.08674 | 19.86072 | 1378 ft | 71 kts | 332° |
| 2026-05-06 19:35 | 50.08768 | 19.85413 | 1330 ft | 72 kts | 254° |
| 2026-05-06 19:35 | 50.08636 | 19.84623 | 1253 ft | 81 kts | 252° |
| 2026-05-06 19:36 | 50.08508 | 19.83769 | 1186 ft | 83 kts | 258° |
| 2026-05-06 19:36 | 50.08373 | 19.82854 | 1154 ft | 88 kts | 257° |
| 2026-05-06 19:36 | 50.08247 | 19.81922 | 1100 ft | 88 kts | 258° |
| 2026-05-06 19:36 | 50.08118 | 19.81007 | 1022 ft | 85 kts | 257° |
| 2026-05-06 19:37 | 50.08011 | 19.80183 | 887 ft | 72 kts | 256° |
| 2026-05-06 19:37 | 50.07906 | 19.79442 | 801 ft | 64 kts | 259° |
| 2026-05-06 19:37 | 50.07810 | 19.78796 | 817 ft | 75 kts | 253° |
| 2026-05-06 19:37 | 50.07692 | 19.77992 | 1109 ft | 73 kts | 258° |
| 2026-05-06 19:38 | 50.07573 | 19.77205 | 1392 ft | 72 kts | 241° |
| 2026-05-06 19:38 | 50.07071 | 19.77139 | 1415 ft | 91 kts | 164° |
| 2026-05-06 19:38 | 50.06453 | 19.77395 | 1418 ft | 92 kts | 162° |
| 2026-05-06 19:38 | 50.05858 | 19.77761 | 1450 ft | 90 kts | 152° |
| 2026-05-06 19:39 | 50.05628 | 19.78581 | 1449 ft | 92 kts | 80° |
| 2026-05-06 19:39 | 50.05772 | 19.79544 | 1460 ft | 93 kts | 79° |
| 2026-05-06 19:39 | 50.05900 | 19.80532 | 1478 ft | 93 kts | 79° |
| 2026-05-06 19:39 | 50.06015 | 19.81522 | 1500 ft | 93 kts | 81° |
| 2026-05-06 19:40 | 50.06129 | 19.82500 | 1528 ft | 90 kts | 80° |
| 2026-05-06 19:40 | 50.06323 | 19.83418 | 1528 ft | 93 kts | 53° |
| 2026-05-06 19:40 | 50.06937 | 19.83680 | 1449 ft | 102 kts | 348° |
| 2026-05-06 19:40 | 50.07633 | 19.83372 | 1404 ft | 104 kts | 344° |
| 2026-05-06 19:41 | 50.08277 | 19.83055 | 1417 ft | 84 kts | 328° |
| 2026-05-06 19:41 | 50.08294 | 19.82219 | 1242 ft | 93 kts | 257° |
| 2026-05-06 19:41 | 50.08158 | 19.81279 | 1088 ft | 84 kts | 258° |
| 2026-05-06 19:41 | 50.08032 | 19.80382 | 993 ft | 85 kts | 259° |
| 2026-05-06 19:42 | 50.07877 | 19.79323 | 1057 ft | 116 kts | 259° |
| 2026-05-06 19:42 | 50.07700 | 19.78015 | 1327 ft | 110 kts | 259° |
| 2026-05-06 19:42 | 50.07581 | 19.77104 | 1671 ft | 74 kts | 257° |
| 2026-05-06 19:42 | 50.07605 | 19.76359 | 1685 ft | 77 kts | 306° |
| 2026-05-06 19:43 | 50.08173 | 19.76051 | 1617 ft | 94 kts | 347° |
| 2026-05-06 19:43 | 50.08789 | 19.76131 | 1616 ft | 94 kts | 45° |
| 2026-05-06 19:43 | 50.09008 | 19.77123 | 1554 ft | 101 kts | 81° |
| 2026-05-06 19:43 | 50.09115 | 19.78211 | 1540 ft | 101 kts | 84° |
| 2026-05-06 19:44 | 50.09213 | 19.79292 | 1566 ft | 100 kts | 81° |
| 2026-05-06 19:44 | 50.09333 | 19.80360 | 1584 ft | 99 kts | 83° |
| 2026-05-06 19:44 | 50.09437 | 19.81421 | 1560 ft | 102 kts | 82° |
| 2026-05-06 19:44 | 50.09543 | 19.82529 | 1514 ft | 105 kts | 83° |
| 2026-05-06 19:45 | 50.09619 | 19.83672 | 1445 ft | 104 kts | 84° |
| 2026-05-06 19:45 | 50.09361 | 19.84591 | 1287 ft | 104 kts | 155° |
| 2026-05-06 19:45 | 50.08659 | 19.84794 | 1282 ft | 98 kts | 199° |
| 2026-05-06 19:45 | 50.08508 | 19.83829 | 1211 ft | 91 kts | 261° |
| 2026-05-06 19:46 | 50.08380 | 19.82883 | 1145 ft | 88 kts | 261° |
| 2026-05-06 19:46 | 50.08249 | 19.81973 | 1055 ft | 82 kts | 259° |
| 2026-05-06 19:46 | 50.08131 | 19.81086 | 998 ft | 85 kts | 260° |
| 2026-05-06 19:46 | 50.07999 | 19.80214 | 891 ft | 79 kts | 259° |
| 2026-05-06 19:47 | 50.07898 | 19.79414 | 797 ft | 68 kts | 263° |
| 2026-05-06 19:47 | 50.07813 | 19.78771 | 797 ft | 73 kts | 254° |
| 2026-05-06 19:47 | 50.07690 | 19.77866 | 1019 ft | 87 kts | 265° |
| 2026-05-06 19:47 | 50.07554 | 19.76965 | 1283 ft | 83 kts | 258° |
| 2026-05-06 19:48 | 50.07226 | 19.76370 | 1403 ft | 85 kts | 173° |
| 2026-05-06 19:48 | 50.06590 | 19.76586 | 1494 ft | 98 kts | 168° |
| 2026-05-06 19:48 | 50.05941 | 19.76832 | 1534 ft | 93 kts | 152° |
| 2026-05-06 19:48 | 50.05757 | 19.77734 | 1506 ft | 98 kts | 84° |
| 2026-05-06 19:49 | 50.05898 | 19.78753 | 1524 ft | 97 kts | 76° |
| 2026-05-06 19:49 | 50.06069 | 19.79778 | 1520 ft | 99 kts | 77° |
| 2026-05-06 19:49 | 50.06247 | 19.80839 | 1512 ft | 101 kts | 78° |
| 2026-05-06 19:49 | 50.06403 | 19.81905 | 1516 ft | 101 kts | 78° |
| 2026-05-06 19:50 | 50.06670 | 19.82854 | 1538 ft | 96 kts | 27° |
| 2026-05-06 19:50 | 50.07372 | 19.82776 | 1408 ft | 107 kts | 347° |
| 2026-05-06 19:50 | 50.08046 | 19.82483 | 1352 ft | 98 kts | 330° |
| 2026-05-06 19:50 | 50.08203 | 19.81596 | 1200 ft | 99 kts | 252° |
| 2026-05-06 19:51 | 50.08060 | 19.80536 | 957 ft | 98 kts | 259° |
| 2026-05-06 19:51 | 50.07921 | 19.79520 | 906 ft | 97 kts | 261° |
| 2026-05-06 19:51 | 50.07782 | 19.78484 | 925 ft | 97 kts | 258° |
| 2026-05-06 19:51 | 50.07618 | 19.77411 | 1133 ft | 103 kts | 257° |
| 2026-05-06 19:52 | 50.07429 | 19.76447 | 1499 ft | 81 kts | 224° |
| 2026-05-06 19:52 | 50.06857 | 19.76439 | 1446 ft | 91 kts | 168° |
| 2026-05-06 19:52 | 50.06238 | 19.76663 | 1493 ft | 92 kts | 161° |
| 2026-05-06 19:52 | 50.05968 | 19.77489 | 1520 ft | 96 kts | 87° |
| 2026-05-06 19:53 | 50.06077 | 19.78546 | 1481 ft | 101 kts | 79° |
| 2026-05-06 19:53 | 50.06216 | 19.79625 | 1453 ft | 102 kts | 80° |
| 2026-05-06 19:53 | 50.06350 | 19.80687 | 1481 ft | 99 kts | 79° |
| 2026-05-06 19:53 | 50.06480 | 19.81730 | 1496 ft | 97 kts | 80° |
| 2026-05-06 19:54 | 50.06609 | 19.82772 | 1484 ft | 99 kts | 79° |
| 2026-05-06 19:54 | 50.06746 | 19.83822 | 1475 ft | 99 kts | 80° |
| 2026-05-06 19:54 | 50.06863 | 19.84873 | 1473 ft | 97 kts | 82° |
| 2026-05-06 19:54 | 50.06961 | 19.85895 | 1482 ft | 96 kts | 82° |
| 2026-05-06 19:55 | 50.07462 | 19.86470 | 1370 ft | 105 kts | 356° |
| 2026-05-06 19:55 | 50.08161 | 19.86232 | 1372 ft | 106 kts | 344° |
| 2026-05-06 19:55 | 50.08688 | 19.85580 | 1403 ft | 100 kts | 282° |
| 2026-05-06 19:55 | 50.08603 | 19.84462 | 1290 ft | 109 kts | 261° |
| 2026-05-06 19:56 | 50.08471 | 19.83459 | 1253 ft | 78 kts | 255° |
| 2026-05-06 19:56 | 50.08350 | 19.82644 | 1138 ft | 78 kts | 261° |
| 2026-05-06 19:56 | 50.08248 | 19.81871 | 1048 ft | 69 kts | 262° |
| 2026-05-06 19:56 | 50.08141 | 19.81135 | 957 ft | 72 kts | 260° |
| 2026-05-06 19:57 | 50.08034 | 19.80361 | 894 ft | 74 kts | 260° |
| 2026-05-06 19:57 | 50.07928 | 19.79583 | 799 ft | 70 kts | 261° |
| 2026-05-06 19:57 | 50.07835 | 19.78883 | 804 ft | 82 kts | 254° |
| 2026-05-06 19:57 | 50.07698 | 19.78005 | 1125 ft | 78 kts | 256° |
| 2026-05-06 19:58 | 50.07434 | 19.77277 | 1404 ft | 89 kts | 191° |
| 2026-05-06 19:58 | 50.06778 | 19.77486 | 1576 ft | 97 kts | 164° |
| 2026-05-06 19:58 | 50.06216 | 19.77946 | 1630 ft | 89 kts | 117° |
| 2026-05-06 19:58 | 50.06265 | 19.78928 | 1587 ft | 99 kts | 77° |
| 2026-05-06 19:59 | 50.06453 | 19.80061 | 1559 ft | 125 kts | 76° |
| 2026-05-06 19:59 | 50.06762 | 19.81363 | 1563 ft | 112 kts | 38° |
| 2026-05-06 19:59 | 50.07383 | 19.81677 | 1336 ft | 87 kts | 71° |
| 2026-05-06 19:59 | 50.06996 | 19.82101 | 1232 ft | 88 kts | 187° |
| 2026-05-06 20:00 | 50.06736 | 19.81517 | 1160 ft | 88 kts | 321° |
| 2026-05-06 20:00 | 50.07122 | 19.81888 | 1165 ft | 87 kts | 103° |
| 2026-05-06 20:00 | 50.06595 | 19.82267 | 1184 ft | 89 kts | 185° |
| 2026-05-06 20:00 | 50.06302 | 19.81628 | 1239 ft | 85 kts | 294° |
| 2026-05-06 20:01 | 50.06822 | 19.81351 | 1238 ft | 87 kts | 19° |
| 2026-05-06 20:01 | 50.07072 | 19.82146 | 1244 ft | 89 kts | 79° |
| 2026-05-06 20:01 | 50.07179 | 19.83074 | 1271 ft | 87 kts | 78° |
| 2026-05-06 20:01 | 50.07269 | 19.84002 | 1302 ft | 86 kts | 83° |
| 2026-05-06 20:02 | 50.07395 | 19.84889 | 1333 ft | 84 kts | 41° |
| 2026-05-06 20:02 | 50.07974 | 19.84907 | 1262 ft | 92 kts | 345° |
| 2026-05-06 20:02 | 50.08566 | 19.84570 | 1304 ft | 85 kts | 310° |
| 2026-05-06 20:02 | 50.08574 | 19.83673 | 1253 ft | 87 kts | 251° |
| 2026-05-06 20:03 | 50.08378 | 19.82765 | 1143 ft | 89 kts | 261° |
| 2026-05-06 20:03 | 50.08244 | 19.81842 | 1066 ft | 83 kts | 257° |
| 2026-05-06 20:03 | 50.08131 | 19.81039 | 942 ft | 70 kts | 259° |
| 2026-05-06 20:03 | 50.08019 | 19.80275 | 892 ft | 73 kts | 261° |
| 2026-05-06 20:04 | 50.07918 | 19.79543 | 802 ft | 64 kts | 262° |
| 2026-05-06 20:04 | 50.07857 | 19.79082 | 795 ft | 28 kts | 258° |
| 2026-05-06 20:04 | 50.07770 | 19.78446 | 796 ft | 73 kts | 262° |
| 2026-05-06 20:04 | 50.07668 | 19.78093 | 794 ft | 2 kts | 178° |
| 2026-05-06 20:05 | 50.07648 | 19.78093 | 794 ft | 2 kts | 179° |
| 2026-05-06 20:05 | 50.07621 | 19.78091 | 794 ft | 0 kts | 182° |
| 2026-05-06 20:07 | 50.07565 | 19.78086 | 794 ft | 16 kts | 184° |
| 2026-05-06 20:07 | 50.07482 | 19.78103 | 794 ft | 12 kts | 129° |
| 2026-05-06 20:08 | 50.07479 | 19.78187 | 794 ft | 5 kts | 80° |
| 2026-05-06 20:08 | 50.07495 | 19.78305 | 794 ft | 20 kts | 77° |
| 2026-05-06 20:08 | 50.07525 | 19.78524 | 794 ft | 18 kts | 78° |
| 2026-05-06 20:08 | 50.07555 | 19.78739 | 794 ft | 21 kts | 77° |
| 2026-05-06 20:09 | 50.07586 | 19.78964 | 794 ft | 24 kts | 77° |
| 2026-05-06 20:09 | 50.07616 | 19.79182 | 794 ft | 22 kts | 78° |
| 2026-05-06 20:09 | 50.07641 | 19.79359 | 794 ft | 11 kts | 73° |
| 2026-05-06 20:09 | 50.07656 | 19.79466 | 794 ft | 8 kts | 76° |
| 2026-05-06 20:10 | 50.07663 | 19.79521 | 794 ft | 6 kts | 78° |
| 2026-05-06 20:10 | 50.07675 | 19.79601 | 794 ft | 9 kts | 76° |
| 2026-05-06 20:10 | 50.07693 | 19.79725 | 794 ft | 13 kts | 75° |
| 2026-05-06 20:10 | 50.07705 | 19.79814 | 794 ft | 0 kts | 71° |
| 2026-05-06 20:11 | 50.07705 | 19.79819 | 794 ft | 0 kts | 76° |
| 2026-05-06 20:13 | 50.07655 | 19.79883 | 794 ft | 20 kts | 172° |
| 2026-05-06 20:13 | 50.07612 | 19.79974 | 794 ft | 7 kts | 87° |
| 2026-05-06 20:13 | 50.07629 | 19.80106 | 794 ft | 12 kts | 82° |
| 2026-05-06 20:13 | 50.07664 | 19.80174 | 794 ft | 8 kts | 346° |
| 2026-05-06 20:14 | 50.07696 | 19.80163 | 794 ft | 0 kts | 347° |